sensor_id;sensor_type;location;lat;lon;timestamp;temperature;humidity
29093;DHT22;16167;48.768;14.984;2022-12-10T00:01:41;0.40;99.90
29093;DHT22;16167;48.768;14.984;2022-12-10T00:04:10;0.40;99.90
29093;DHT22;16167;48.768;14.984;2022-12-10T00:06:39;0.40;99.70
29093;DHT22;16167;48.768;14.984;2022-12-10T00:09:10;0.40;99.50
29093;DHT22;16167;48.768;14.984;2022-12-10T00:11:39;0.40;99.90
29093;DHT22;16167;48.768;14.984;2022-12-10T00:14:08;0.40;99.90
29093;DHT22;16167;48.768;14.984;2022-12-10T00:16:37;0.40;99.90
29093;DHT22;16167;48.768;14.984;2022-12-10T00:19:05;0.40;99.90
29093;DHT22;16167;48.768;14.984;2022-12-10T00:21:35;0.40;99.90
29093;DHT22;16167;48.768;14.984;2022-12-10T00:24:04;0.30;99.90
29093;DHT22;16167;48.768;14.984;2022-12-10T00:26:35;0.40;99.90
29093;DHT22;16167;48.768;14.984;2022-12-10T00:29:06;0.40;99.60
29093;DHT22;16167;48.768;14.984;2022-12-10T00:31:35;0.40;99.40
29093;DHT22;16167;48.768;14.984;2022-12-10T00:34:04;0.40;99.30
29093;DHT22;16167;48.768;14.984;2022-12-10T00:36:35;0.40;99.90
29093;DHT22;16167;48.768;14.984;2022-12-10T00:39:04;0.30;99.90
29093;DHT22;16167;48.768;14.984;2022-12-10T00:41:34;0.30;99.70
29093;DHT22;16167;48.768;14.984;2022-12-10T00:44:02;0.30;99.90
29093;DHT22;16167;48.768;14.984;2022-12-10T00:46:31;0.30;99.90
29093;DHT22;16167;48.768;14.984;2022-12-10T00:48:59;0.30;99.90
29093;DHT22;16167;48.768;14.984;2022-12-10T00:51:27;0.30;99.90
29093;DHT22;16167;48.768;14.984;2022-12-10T00:53:57;0.30;99.90
29093;DHT22;16167;48.768;14.984;2022-12-10T00:56:27;0.30;99.90
29093;DHT22;16167;48.768;14.984;2022-12-10T00:58:57;0.30;99.90
29093;DHT22;16167;48.768;14.984;2022-12-10T01:01:28;0.30;99.90
29093;DHT22;16167;48.768;14.984;2022-12-10T01:04:00;0.30;99.90
29093;DHT22;16167;48.768;14.984;2022-12-10T01:06:30;0.30;99.90
29093;DHT22;16167;48.768;14.984;2022-12-10T01:09:00;0.30;99.90
29093;DHT22;16167;48.768;14.984;2022-12-10T01:11:32;0.30;99.90
29093;DHT22;16167;48.768;14.984;2022-12-10T01:14:02;0.30;99.90
29093;DHT22;16167;48.768;14.984;2022-12-10T01:16:30;0.30;99.90
29093;DHT22;16167;48.768;14.984;2022-12-10T01:18:59;0.30;99.90
29093;DHT22;16167;48.768;14.984;2022-12-10T01:21:28;0.30;99.90
29093;DHT22;16167;48.768;14.984;2022-12-10T01:23:58;0.30;99.90
29093;DHT22;16167;48.768;14.984;2022-12-10T01:26:28;0.30;99.90
29093;DHT22;16167;48.768;14.984;2022-12-10T01:28:57;0.30;99.90
29093;DHT22;16167;48.768;14.984;2022-12-10T01:31:29;0.30;99.90
29093;DHT22;16167;48.768;14.984;2022-12-10T01:33:59;0.30;99.90
29093;DHT22;16167;48.768;14.984;2022-12-10T01:36:28;0.20;99.90
29093;DHT22;16167;48.768;14.984;2022-12-10T01:38:57;0.30;99.90
29093;DHT22;16167;48.768;14.984;2022-12-10T01:41:28;0.20;99.90
29093;DHT22;16167;48.768;14.984;2022-12-10T01:43:58;0.20;99.90
29093;DHT22;16167;48.768;14.984;2022-12-10T01:46:30;0.30;99.90
29093;DHT22;16167;48.768;14.984;2022-12-10T01:49:00;0.20;99.90
29093;DHT22;16167;48.768;14.984;2022-12-10T01:51:35;0.30;99.90
29093;DHT22;16167;48.768;14.984;2022-12-10T01:54:06;0.30;99.90
29093;DHT22;16167;48.768;14.984;2022-12-10T01:56:37;0.20;99.90
29093;DHT22;16167;48.768;14.984;2022-12-10T01:59:06;0.30;99.90
29093;DHT22;16167;48.768;14.984;2022-12-10T02:01:47;0.30;99.90
29093;DHT22;16167;48.768;14.984;2022-12-10T02:04:23;0.30;99.90
29093;DHT22;16167;48.768;14.984;2022-12-10T02:06:59;0.30;99.90
29093;DHT22;16167;48.768;14.984;2022-12-10T02:09:34;0.30;99.90
29093;DHT22;16167;48.768;14.984;2022-12-10T02:12:11;0.30;99.90
29093;DHT22;16167;48.768;14.984;2022-12-10T02:14:47;0.20;99.90
29093;DHT22;16167;48.768;14.984;2022-12-10T02:17:24;0.30;99.90
29093;DHT22;16167;48.768;14.984;2022-12-10T02:20:02;0.30;99.90
29093;DHT22;16167;48.768;14.984;2022-12-10T02:22:35;0.30;99.90
29093;DHT22;16167;48.768;14.984;2022-12-10T02:25:06;0.30;99.90
29093;DHT22;16167;48.768;14.984;2022-12-10T02:27:43;0.20;99.90
29093;DHT22;16167;48.768;14.984;2022-12-10T02:30:14;0.30;99.90
29093;DHT22;16167;48.768;14.984;2022-12-10T02:32:44;0.30;99.90
29093;DHT22;16167;48.768;14.984;2022-12-10T02:35:18;0.20;99.90
29093;DHT22;16167;48.768;14.984;2022-12-10T02:37:50;0.30;99.90
29093;DHT22;16167;48.768;14.984;2022-12-10T02:40:23;0.30;99.90
29093;DHT22;16167;48.768;14.984;2022-12-10T02:42:53;0.20;99.90
29093;DHT22;16167;48.768;14.984;2022-12-10T02:45:25;0.30;99.90
29093;DHT22;16167;48.768;14.984;2022-12-10T02:47:57;0.30;99.90
29093;DHT22;16167;48.768;14.984;2022-12-10T02:50:26;0.20;99.90
29093;DHT22;16167;48.768;14.984;2022-12-10T02:52:55;0.20;99.90
29093;DHT22;16167;48.768;14.984;2022-12-10T02:55:23;0.20;99.90
29093;DHT22;16167;48.768;14.984;2022-12-10T02:58:05;0.20;99.90
29093;DHT22;16167;48.768;14.984;2022-12-10T03:00:42;0.30;99.90
29093;DHT22;16167;48.768;14.984;2022-12-10T03:03:22;0.20;99.90
29093;DHT22;16167;48.768;14.984;2022-12-10T03:05:52;0.20;99.90
29093;DHT22;16167;48.768;14.984;2022-12-10T03:08:25;0.30;99.90
29093;DHT22;16167;48.768;14.984;2022-12-10T03:10:58;0.30;99.90
29093;DHT22;16167;48.768;14.984;2022-12-10T03:13:29;0.30;99.90
29093;DHT22;16167;48.768;14.984;2022-12-10T03:15:59;0.20;99.90
29093;DHT22;16167;48.768;14.984;2022-12-10T03:18:29;0.30;99.90
29093;DHT22;16167;48.768;14.984;2022-12-10T03:21:01;0.20;99.90
29093;DHT22;16167;48.768;14.984;2022-12-10T03:23:32;0.20;99.90
29093;DHT22;16167;48.768;14.984;2022-12-10T03:26:02;0.20;99.90
29093;DHT22;16167;48.768;14.984;2022-12-10T03:28:34;0.20;99.90
29093;DHT22;16167;48.768;14.984;2022-12-10T03:31:08;0.20;99.90
29093;DHT22;16167;48.768;14.984;2022-12-10T03:33:38;0.20;99.90
29093;DHT22;16167;48.768;14.984;2022-12-10T03:36:08;0.20;99.90
29093;DHT22;16167;48.768;14.984;2022-12-10T03:38:36;0.20;99.90
29093;DHT22;16167;48.768;14.984;2022-12-10T03:41:05;0.20;99.90
29093;DHT22;16167;48.768;14.984;2022-12-10T03:43:33;0.30;99.90
29093;DHT22;16167;48.768;14.984;2022-12-10T03:46:02;0.20;99.90
29093;DHT22;16167;48.768;14.984;2022-12-10T03:48:32;0.20;99.90
29093;DHT22;16167;48.768;14.984;2022-12-10T03:51:00;0.20;99.90
29093;DHT22;16167;48.768;14.984;2022-12-10T03:53:28;0.20;99.90
29093;DHT22;16167;48.768;14.984;2022-12-10T03:55:56;0.20;99.90
29093;DHT22;16167;48.768;14.984;2022-12-10T03:58:24;0.20;99.90
29093;DHT22;16167;48.768;14.984;2022-12-10T04:00:52;0.20;99.90
29093;DHT22;16167;48.768;14.984;2022-12-10T04:03:21;0.20;99.90
29093;DHT22;16167;48.768;14.984;2022-12-10T04:05:51;0.20;99.90
29093;DHT22;16167;48.768;14.984;2022-12-10T04:08:19;0.20;99.90
29093;DHT22;16167;48.768;14.984;2022-12-10T04:10:47;0.20;99.90
29093;DHT22;16167;48.768;14.984;2022-12-10T04:13:15;0.20;99.90
29093;DHT22;16167;48.768;14.984;2022-12-10T04:16:01;0.20;99.90
29093;DHT22;16167;48.768;14.984;2022-12-10T04:18:47;0.20;99.90
29093;DHT22;16167;48.768;14.984;2022-12-10T04:21:17;0.20;99.90
29093;DHT22;16167;48.768;14.984;2022-12-10T04:24:03;0.20;99.90
29093;DHT22;16167;48.768;14.984;2022-12-10T04:26:45;0.20;99.90
29093;DHT22;16167;48.768;14.984;2022-12-10T04:29:24;0.20;99.90
29093;DHT22;16167;48.768;14.984;2022-12-10T04:31:52;0.20;99.90
29093;DHT22;16167;48.768;14.984;2022-12-10T04:34:21;0.20;99.90
29093;DHT22;16167;48.768;14.984;2022-12-10T04:36:51;0.20;99.90
29093;DHT22;16167;48.768;14.984;2022-12-10T04:39:19;0.20;99.90
29093;DHT22;16167;48.768;14.984;2022-12-10T04:41:48;0.20;99.90
29093;DHT22;16167;48.768;14.984;2022-12-10T04:44:18;0.20;99.90
29093;DHT22;16167;48.768;14.984;2022-12-10T04:46:46;0.20;99.90
29093;DHT22;16167;48.768;14.984;2022-12-10T04:49:15;0.20;99.90
29093;DHT22;16167;48.768;14.984;2022-12-10T04:51:44;0.20;99.90
29093;DHT22;16167;48.768;14.984;2022-12-10T04:54:13;0.20;99.90
29093;DHT22;16167;48.768;14.984;2022-12-10T04:56:42;0.20;99.90
29093;DHT22;16167;48.768;14.984;2022-12-10T04:59:10;0.20;99.90
29093;DHT22;16167;48.768;14.984;2022-12-10T05:01:39;0.20;99.90
29093;DHT22;16167;48.768;14.984;2022-12-10T05:04:09;0.20;99.90
29093;DHT22;16167;48.768;14.984;2022-12-10T05:06:39;0.20;99.90
29093;DHT22;16167;48.768;14.984;2022-12-10T05:09:09;0.20;99.90
29093;DHT22;16167;48.768;14.984;2022-12-10T05:11:39;0.20;99.90
29093;DHT22;16167;48.768;14.984;2022-12-10T05:14:09;0.20;99.90
29093;DHT22;16167;48.768;14.984;2022-12-10T05:16:38;0.20;99.90
29093;DHT22;16167;48.768;14.984;2022-12-10T05:19:06;0.20;99.90
29093;DHT22;16167;48.768;14.984;2022-12-10T05:21:34;0.20;99.90
29093;DHT22;16167;48.768;14.984;2022-12-10T05:24:17;0.20;99.90
29093;DHT22;16167;48.768;14.984;2022-12-10T05:26:47;0.20;99.90
29093;DHT22;16167;48.768;14.984;2022-12-10T05:29:18;0.30;99.90
29093;DHT22;16167;48.768;14.984;2022-12-10T05:31:47;0.20;99.90
29093;DHT22;16167;48.768;14.984;2022-12-10T05:34:15;0.20;99.90
29093;DHT22;16167;48.768;14.984;2022-12-10T05:36:43;0.20;99.90
29093;DHT22;16167;48.768;14.984;2022-12-10T05:39:11;0.20;99.90
29093;DHT22;16167;48.768;14.984;2022-12-10T05:41:40;0.20;99.90
29093;DHT22;16167;48.768;14.984;2022-12-10T05:44:10;0.20;99.90
29093;DHT22;16167;48.768;14.984;2022-12-10T05:46:39;0.20;99.90
29093;DHT22;16167;48.768;14.984;2022-12-10T05:49:07;0.20;99.90
29093;DHT22;16167;48.768;14.984;2022-12-10T05:51:37;0.20;99.90
29093;DHT22;16167;48.768;14.984;2022-12-10T05:54:06;0.20;99.90
29093;DHT22;16167;48.768;14.984;2022-12-10T05:56:36;0.20;99.90
29093;DHT22;16167;48.768;14.984;2022-12-10T05:59:05;0.20;99.90
29093;DHT22;16167;48.768;14.984;2022-12-10T06:01:43;0.20;99.90
29093;DHT22;16167;48.768;14.984;2022-12-10T06:04:12;0.20;99.90
29093;DHT22;16167;48.768;14.984;2022-12-10T06:06:41;0.20;99.90
29093;DHT22;16167;48.768;14.984;2022-12-10T06:09:12;0.20;99.90
29093;DHT22;16167;48.768;14.984;2022-12-10T06:11:41;0.20;99.90
29093;DHT22;16167;48.768;14.984;2022-12-10T06:14:09;0.30;99.90
29093;DHT22;16167;48.768;14.984;2022-12-10T06:16:39;0.30;99.90
29093;DHT22;16167;48.768;14.984;2022-12-10T06:19:08;0.20;99.90
29093;DHT22;16167;48.768;14.984;2022-12-10T06:21:37;0.30;99.90
29093;DHT22;16167;48.768;14.984;2022-12-10T06:24:05;0.20;99.90
29093;DHT22;16167;48.768;14.984;2022-12-10T06:26:34;0.20;99.90
29093;DHT22;16167;48.768;14.984;2022-12-10T06:29:02;0.20;99.90
29093;DHT22;16167;48.768;14.984;2022-12-10T06:31:31;0.20;99.90
29093;DHT22;16167;48.768;14.984;2022-12-10T06:34:00;0.20;99.90
29093;DHT22;16167;48.768;14.984;2022-12-10T06:36:29;0.20;99.90
29093;DHT22;16167;48.768;14.984;2022-12-10T06:38:57;0.20;99.90
29093;DHT22;16167;48.768;14.984;2022-12-10T06:41:25;0.20;99.90
29093;DHT22;16167;48.768;14.984;2022-12-10T06:43:54;0.20;99.90
29093;DHT22;16167;48.768;14.984;2022-12-10T06:46:26;0.20;99.90
29093;DHT22;16167;48.768;14.984;2022-12-10T06:48:55;0.20;99.90
29093;DHT22;16167;48.768;14.984;2022-12-10T06:51:23;0.20;99.90
29093;DHT22;16167;48.768;14.984;2022-12-10T06:53:53;0.20;99.90
29093;DHT22;16167;48.768;14.984;2022-12-10T06:56:21;0.20;99.90
29093;DHT22;16167;48.768;14.984;2022-12-10T06:58:50;0.10;99.90
29093;DHT22;16167;48.768;14.984;2022-12-10T07:01:20;0.20;99.90
29093;DHT22;16167;48.768;14.984;2022-12-10T07:03:49;0.20;99.90
29093;DHT22;16167;48.768;14.984;2022-12-10T07:06:18;0.20;99.90
29093;DHT22;16167;48.768;14.984;2022-12-10T07:08:47;0.20;99.90
29093;DHT22;16167;48.768;14.984;2022-12-10T07:11:18;0.20;99.90
29093;DHT22;16167;48.768;14.984;2022-12-10T07:13:46;0.20;99.90
29093;DHT22;16167;48.768;14.984;2022-12-10T07:16:16;0.20;99.90
29093;DHT22;16167;48.768;14.984;2022-12-10T07:18:45;0.20;99.90
29093;DHT22;16167;48.768;14.984;2022-12-10T07:21:20;0.20;99.90
29093;DHT22;16167;48.768;14.984;2022-12-10T07:23:49;0.20;99.90
29093;DHT22;16167;48.768;14.984;2022-12-10T07:26:18;0.20;99.90
29093;DHT22;16167;48.768;14.984;2022-12-10T07:28:47;0.20;99.90
29093;DHT22;16167;48.768;14.984;2022-12-10T07:31:20;0.20;99.90
29093;DHT22;16167;48.768;14.984;2022-12-10T07:33:50;0.20;99.90
29093;DHT22;16167;48.768;14.984;2022-12-10T07:36:20;0.30;99.90
29093;DHT22;16167;48.768;14.984;2022-12-10T07:38:49;0.30;99.90
29093;DHT22;16167;48.768;14.984;2022-12-10T07:41:20;0.30;99.90
29093;DHT22;16167;48.768;14.984;2022-12-10T07:43:49;0.30;99.90
29093;DHT22;16167;48.768;14.984;2022-12-10T07:46:19;0.30;99.90
29093;DHT22;16167;48.768;14.984;2022-12-10T07:48:48;0.30;99.90
29093;DHT22;16167;48.768;14.984;2022-12-10T07:51:19;0.30;99.90
29093;DHT22;16167;48.768;14.984;2022-12-10T07:53:50;0.30;99.90
29093;DHT22;16167;48.768;14.984;2022-12-10T07:56:21;0.30;99.90
29093;DHT22;16167;48.768;14.984;2022-12-10T07:58:49;0.30;99.90
29093;DHT22;16167;48.768;14.984;2022-12-10T08:01:20;0.30;99.90
29093;DHT22;16167;48.768;14.984;2022-12-10T08:03:49;0.30;99.90
29093;DHT22;16167;48.768;14.984;2022-12-10T08:06:19;0.40;99.90
29093;DHT22;16167;48.768;14.984;2022-12-10T08:08:48;0.40;99.90
29093;DHT22;16167;48.768;14.984;2022-12-10T08:11:18;0.40;99.90
29093;DHT22;16167;48.768;14.984;2022-12-10T08:13:48;0.50;99.90
29093;DHT22;16167;48.768;14.984;2022-12-10T08:16:24;0.50;99.90
29093;DHT22;16167;48.768;14.984;2022-12-10T08:18:54;0.50;99.90
29093;DHT22;16167;48.768;14.984;2022-12-10T08:21:24;0.50;99.90
29093;DHT22;16167;48.768;14.984;2022-12-10T08:23:53;0.50;99.90
29093;DHT22;16167;48.768;14.984;2022-12-10T08:26:24;0.50;99.90
29093;DHT22;16167;48.768;14.984;2022-12-10T08:28:54;0.60;99.90
29093;DHT22;16167;48.768;14.984;2022-12-10T08:31:24;0.60;99.90
29093;DHT22;16167;48.768;14.984;2022-12-10T08:33:52;0.60;99.90
29093;DHT22;16167;48.768;14.984;2022-12-10T08:36:20;0.70;99.80
29093;DHT22;16167;48.768;14.984;2022-12-10T08:38:48;0.70;98.90
29093;DHT22;16167;48.768;14.984;2022-12-10T08:41:19;0.70;98.40
29093;DHT22;16167;48.768;14.984;2022-12-10T08:43:48;0.80;97.80
29093;DHT22;16167;48.768;14.984;2022-12-10T08:46:20;0.80;97.60
29093;DHT22;16167;48.768;14.984;2022-12-10T08:48:48;0.80;96.70
29093;DHT22;16167;48.768;14.984;2022-12-10T08:51:19;0.90;95.80
29093;DHT22;16167;48.768;14.984;2022-12-10T08:53:47;0.90;95.60
29093;DHT22;16167;48.768;14.984;2022-12-10T08:56:15;1.00;95.80
29093;DHT22;16167;48.768;14.984;2022-12-10T08:58:43;0.90;93.70
29093;DHT22;16167;48.768;14.984;2022-12-10T09:01:14;1.00;93.30
29093;DHT22;16167;48.768;14.984;2022-12-10T09:03:43;1.10;90.60
29093;DHT22;16167;48.768;14.984;2022-12-10T09:06:12;1.00;92.00
29093;DHT22;16167;48.768;14.984;2022-12-10T09:08:41;1.00;91.30
29093;DHT22;16167;48.768;14.984;2022-12-10T09:11:11;1.10;92.70
29093;DHT22;16167;48.768;14.984;2022-12-10T09:13:40;1.00;91.60
29093;DHT22;16167;48.768;14.984;2022-12-10T09:16:09;1.10;92.90
29093;DHT22;16167;48.768;14.984;2022-12-10T09:18:38;1.10;92.50
29093;DHT22;16167;48.768;14.984;2022-12-10T09:21:09;1.10;91.00
29093;DHT22;16167;48.768;14.984;2022-12-10T09:23:39;1.10;91.90
29093;DHT22;16167;48.768;14.984;2022-12-10T09:26:09;1.20;90.10
29093;DHT22;16167;48.768;14.984;2022-12-10T09:28:38;1.20;90.00
29093;DHT22;16167;48.768;14.984;2022-12-10T09:31:07;1.20;89.70
29093;DHT22;16167;48.768;14.984;2022-12-10T09:33:42;1.30;87.60
29093;DHT22;16167;48.768;14.984;2022-12-10T09:36:13;1.30;87.80
29093;DHT22;16167;48.768;14.984;2022-12-10T09:38:43;1.30;84.20
29093;DHT22;16167;48.768;14.984;2022-12-10T09:44:07;1.30;81.60
29093;DHT22;16167;48.768;14.984;2022-12-10T09:46:46;1.30;80.90
29093;DHT22;16167;48.768;14.984;2022-12-10T09:49:17;1.20;79.70
29093;DHT22;16167;48.768;14.984;2022-12-10T09:51:50;1.30;86.00
29093;DHT22;16167;48.768;14.984;2022-12-10T09:54:25;1.20;83.80
29093;DHT22;16167;48.768;14.984;2022-12-10T09:56:55;1.20;86.00
29093;DHT22;16167;48.768;14.984;2022-12-10T09:59:29;1.20;82.20
29093;DHT22;16167;48.768;14.984;2022-12-10T10:02:09;1.20;81.50
29093;DHT22;16167;48.768;14.984;2022-12-10T10:04:40;1.20;84.10
29093;DHT22;16167;48.768;14.984;2022-12-10T10:07:17;1.20;83.90
29093;DHT22;16167;48.768;14.984;2022-12-10T10:09:47;1.30;82.90
29093;DHT22;16167;48.768;14.984;2022-12-10T10:12:16;1.30;76.00
29093;DHT22;16167;48.768;14.984;2022-12-10T10:14:45;1.30;76.70
29093;DHT22;16167;48.768;14.984;2022-12-10T10:17:18;1.30;76.20
29093;DHT22;16167;48.768;14.984;2022-12-10T10:19:47;1.40;75.60
29093;DHT22;16167;48.768;14.984;2022-12-10T10:22:17;1.40;73.80
29093;DHT22;16167;48.768;14.984;2022-12-10T10:24:46;1.40;70.00
29093;DHT22;16167;48.768;14.984;2022-12-10T10:27:16;1.30;66.50
29093;DHT22;16167;48.768;14.984;2022-12-10T10:29:47;1.30;70.60
29093;DHT22;16167;48.768;14.984;2022-12-10T10:32:25;1.30;77.60
29093;DHT22;16167;48.768;14.984;2022-12-10T10:34:55;1.30;73.70
29093;DHT22;16167;48.768;14.984;2022-12-10T10:37:27;1.30;78.50
29093;DHT22;16167;48.768;14.984;2022-12-10T10:39:57;1.50;75.20
29093;DHT22;16167;48.768;14.984;2022-12-10T10:42:33;1.50;74.60
29093;DHT22;16167;48.768;14.984;2022-12-10T10:45:03;1.50;72.70
29093;DHT22;16167;48.768;14.984;2022-12-10T10:47:34;1.40;71.50
29093;DHT22;16167;48.768;14.984;2022-12-10T10:50:04;1.50;73.20
29093;DHT22;16167;48.768;14.984;2022-12-10T10:52:38;1.50;75.60
29093;DHT22;16167;48.768;14.984;2022-12-10T10:55:32;1.50;71.50
29093;DHT22;16167;48.768;14.984;2022-12-10T10:58:02;1.60;67.20
29093;DHT22;16167;48.768;14.984;2022-12-10T11:00:30;1.70;72.70
29093;DHT22;16167;48.768;14.984;2022-12-10T11:02:58;1.80;68.80
29093;DHT22;16167;48.768;14.984;2022-12-10T11:05:30;1.90;62.30
29093;DHT22;16167;48.768;14.984;2022-12-10T11:08:06;2.00;51.20
29093;DHT22;16167;48.768;14.984;2022-12-10T11:10:34;2.00;48.20
29093;DHT22;16167;48.768;14.984;2022-12-10T11:13:06;2.10;50.80
29093;DHT22;16167;48.768;14.984;2022-12-10T11:15:36;2.10;54.80
29093;DHT22;16167;48.768;14.984;2022-12-10T11:18:24;2.10;52.00
29093;DHT22;16167;48.768;14.984;2022-12-10T11:21:00;2.10;45.70
29093;DHT22;16167;48.768;14.984;2022-12-10T11:23:32;2.00;46.70
29093;DHT22;16167;48.768;14.984;2022-12-10T11:26:30;2.00;43.80
29093;DHT22;16167;48.768;14.984;2022-12-10T11:29:15;2.00;41.10
29093;DHT22;16167;48.768;14.984;2022-12-10T11:31:55;2.00;46.40
29093;DHT22;16167;48.768;14.984;2022-12-10T11:34:33;2.00;49.40
29093;DHT22;16167;48.768;14.984;2022-12-10T11:37:10;2.00;50.30
29093;DHT22;16167;48.768;14.984;2022-12-10T11:40:12;2.10;46.60
29093;DHT22;16167;48.768;14.984;2022-12-10T11:42:50;2.10;50.90
29093;DHT22;16167;48.768;14.984;2022-12-10T11:45:26;2.00;42.80
29093;DHT22;16167;48.768;14.984;2022-12-10T11:48:06;2.00;46.90
29093;DHT22;16167;48.768;14.984;2022-12-10T11:50:41;2.00;43.80
29093;DHT22;16167;48.768;14.984;2022-12-10T11:53:24;2.00;50.50
29093;DHT22;16167;48.768;14.984;2022-12-10T11:56:02;2.00;43.70
29093;DHT22;16167;48.768;14.984;2022-12-10T12:01:55;2.00;45.10
29093;DHT22;16167;48.768;14.984;2022-12-10T12:04:33;2.00;46.40
29093;DHT22;16167;48.768;14.984;2022-12-10T12:07:23;1.90;44.40
29093;DHT22;16167;48.768;14.984;2022-12-10T12:10:03;1.90;36.30
29093;DHT22;16167;48.768;14.984;2022-12-10T12:12:42;1.90;50.10
29093;DHT22;16167;48.768;14.984;2022-12-10T12:15:26;1.90;47.20
29093;DHT22;16167;48.768;14.984;2022-12-10T12:17:59;1.80;46.90
29093;DHT22;16167;48.768;14.984;2022-12-10T12:20:32;1.80;52.20
29093;DHT22;16167;48.768;14.984;2022-12-10T12:23:06;1.80;59.00
29093;DHT22;16167;48.768;14.984;2022-12-10T12:25:42;1.80;51.30
29093;DHT22;16167;48.768;14.984;2022-12-10T12:28:16;1.70;51.40
29093;DHT22;16167;48.768;14.984;2022-12-10T12:30:53;1.70;49.70
29093;DHT22;16167;48.768;14.984;2022-12-10T12:33:28;1.80;53.80
29093;DHT22;16167;48.768;14.984;2022-12-10T12:35:59;1.80;53.30
29093;DHT22;16167;48.768;14.984;2022-12-10T12:38:32;1.80;53.40
29093;DHT22;16167;48.768;14.984;2022-12-10T12:41:05;1.80;54.50
29093;DHT22;16167;48.768;14.984;2022-12-10T12:43:46;1.80;54.10
29093;DHT22;16167;48.768;14.984;2022-12-10T12:46:20;1.70;48.80
29093;DHT22;16167;48.768;14.984;2022-12-10T12:48:55;1.70;50.00
29093;DHT22;16167;48.768;14.984;2022-12-10T12:51:27;1.70;50.50
29093;DHT22;16167;48.768;14.984;2022-12-10T12:53:57;1.60;48.70
29093;DHT22;16167;48.768;14.984;2022-12-10T12:56:37;1.60;53.20
29093;DHT22;16167;48.768;14.984;2022-12-10T12:59:21;1.60;51.80
29093;DHT22;16167;48.768;14.984;2022-12-10T13:01:56;1.50;55.10
29093;DHT22;16167;48.768;14.984;2022-12-10T13:04:26;1.50;58.30
29093;DHT22;16167;48.768;14.984;2022-12-10T13:10:24;1.40;67.60
29093;DHT22;16167;48.768;14.984;2022-12-10T13:13:15;1.40;65.90
29093;DHT22;16167;48.768;14.984;2022-12-10T13:15:46;1.30;67.90
29093;DHT22;16167;48.768;14.984;2022-12-10T13:18:34;1.30;74.90
29093;DHT22;16167;48.768;14.984;2022-12-10T13:21:29;1.30;74.50
29093;DHT22;16167;48.768;14.984;2022-12-10T13:24:09;1.20;76.80
29093;DHT22;16167;48.768;14.984;2022-12-10T13:27:05;1.20;75.20
29093;DHT22;16167;48.768;14.984;2022-12-10T13:29:45;1.20;73.80
29093;DHT22;16167;48.768;14.984;2022-12-10T13:32:18;1.20;75.30
29093;DHT22;16167;48.768;14.984;2022-12-10T13:34:46;1.20;76.50
29093;DHT22;16167;48.768;14.984;2022-12-10T13:37:30;1.20;77.00
29093;DHT22;16167;48.768;14.984;2022-12-10T13:40:14;1.20;78.50
29093;DHT22;16167;48.768;14.984;2022-12-10T13:42:44;1.20;79.30
29093;DHT22;16167;48.768;14.984;2022-12-10T13:45:34;1.20;81.30
29093;DHT22;16167;48.768;14.984;2022-12-10T13:48:28;1.10;86.40
29093;DHT22;16167;48.768;14.984;2022-12-10T13:51:19;1.10;82.80
29093;DHT22;16167;48.768;14.984;2022-12-10T13:53:58;1.10;82.70
29093;DHT22;16167;48.768;14.984;2022-12-10T13:56:29;1.10;87.00
29093;DHT22;16167;48.768;14.984;2022-12-10T13:59:16;1.10;86.60
29093;DHT22;16167;48.768;14.984;2022-12-10T14:01:51;1.10;86.20
29093;DHT22;16167;48.768;14.984;2022-12-10T14:04:39;1.00;83.90
29093;DHT22;16167;48.768;14.984;2022-12-10T14:07:11;1.00;85.80
29093;DHT22;16167;48.768;14.984;2022-12-10T14:09:45;1.00;85.30
29093;DHT22;16167;48.768;14.984;2022-12-10T14:12:16;1.00;86.60
29093;DHT22;16167;48.768;14.984;2022-12-10T14:14:47;1.00;86.10
29093;DHT22;16167;48.768;14.984;2022-12-10T14:17:19;1.00;90.00
29093;DHT22;16167;48.768;14.984;2022-12-10T14:19:53;0.90;90.40
29093;DHT22;16167;48.768;14.984;2022-12-10T14:22:28;0.90;90.50
29093;DHT22;16167;48.768;14.984;2022-12-10T14:24:59;0.90;90.70
29093;DHT22;16167;48.768;14.984;2022-12-10T14:27:28;0.90;91.20
29093;DHT22;16167;48.768;14.984;2022-12-10T14:30:03;0.90;90.50
29093;DHT22;16167;48.768;14.984;2022-12-10T14:32:36;0.80;90.80
29093;DHT22;16167;48.768;14.984;2022-12-10T14:35:10;0.80;91.60
29093;DHT22;16167;48.768;14.984;2022-12-10T14:37:41;0.90;91.20
29093;DHT22;16167;48.768;14.984;2022-12-10T14:40:19;0.80;88.90
29093;DHT22;16167;48.768;14.984;2022-12-10T14:42:47;0.80;89.70
29093;DHT22;16167;48.768;14.984;2022-12-10T14:45:16;0.80;90.30
29093;DHT22;16167;48.768;14.984;2022-12-10T14:47:44;0.80;89.40
29093;DHT22;16167;48.768;14.984;2022-12-10T14:50:17;0.80;89.60
29093;DHT22;16167;48.768;14.984;2022-12-10T14:52:50;0.70;90.20
29093;DHT22;16167;48.768;14.984;2022-12-10T14:55:21;0.80;90.60
29093;DHT22;16167;48.768;14.984;2022-12-10T14:57:54;0.80;92.10
29093;DHT22;16167;48.768;14.984;2022-12-10T15:00:23;0.70;92.40
29093;DHT22;16167;48.768;14.984;2022-12-10T15:02:55;0.70;92.40
29093;DHT22;16167;48.768;14.984;2022-12-10T15:05:26;0.70;92.60
29093;DHT22;16167;48.768;14.984;2022-12-10T15:07:56;0.60;93.80
29093;DHT22;16167;48.768;14.984;2022-12-10T15:10:27;0.60;93.20
29093;DHT22;16167;48.768;14.984;2022-12-10T15:12:57;0.70;94.40
29093;DHT22;16167;48.768;14.984;2022-12-10T15:15:29;0.60;94.60
29093;DHT22;16167;48.768;14.984;2022-12-10T15:18:01;0.60;95.80
29093;DHT22;16167;48.768;14.984;2022-12-10T15:20:37;0.60;95.00
29093;DHT22;16167;48.768;14.984;2022-12-10T15:23:17;0.60;95.00
29093;DHT22;16167;48.768;14.984;2022-12-10T15:25:49;0.60;95.40
29093;DHT22;16167;48.768;14.984;2022-12-10T15:28:26;0.60;96.10
29093;DHT22;16167;48.768;14.984;2022-12-10T15:30:57;0.60;96.20
29093;DHT22;16167;48.768;14.984;2022-12-10T15:33:31;0.60;96.70
29093;DHT22;16167;48.768;14.984;2022-12-10T15:36:02;0.60;96.30
29093;DHT22;16167;48.768;14.984;2022-12-10T15:38:31;0.50;96.90
29093;DHT22;16167;48.768;14.984;2022-12-10T15:43:51;0.50;97.30
29093;DHT22;16167;48.768;14.984;2022-12-10T15:46:22;0.50;97.50
29093;DHT22;16167;48.768;14.984;2022-12-10T15:48:50;0.50;98.00
29093;DHT22;16167;48.768;14.984;2022-12-10T15:51:19;0.50;98.00
29093;DHT22;16167;48.768;14.984;2022-12-10T15:53:47;0.50;98.40
29093;DHT22;16167;48.768;14.984;2022-12-10T15:56:15;0.50;99.00
29093;DHT22;16167;48.768;14.984;2022-12-10T15:58:44;0.50;98.80
29093;DHT22;16167;48.768;14.984;2022-12-10T16:01:12;0.50;98.60
29093;DHT22;16167;48.768;14.984;2022-12-10T16:03:42;0.50;98.20
29093;DHT22;16167;48.768;14.984;2022-12-10T16:06:11;0.50;98.20
29093;DHT22;16167;48.768;14.984;2022-12-10T16:08:47;0.50;97.50
29093;DHT22;16167;48.768;14.984;2022-12-10T16:11:15;0.50;97.70
29093;DHT22;16167;48.768;14.984;2022-12-10T16:13:48;0.50;97.80